sensor_id;sensor_type;location;lat;lon;timestamp;P1;durP1;ratioP1;P2;durP2;ratioP2
67340;SDS011;54227;45.198;5.732;2022-07-29T00:01:28;1.15;;;0.70;;
67340;SDS011;54227;45.198;5.732;2022-07-29T00:03:54;1.60;;;0.88;;
67340;SDS011;54227;45.198;5.732;2022-07-29T00:06:20;0.93;;;0.70;;
67340;SDS011;54227;45.198;5.732;2022-07-29T00:08:46;0.95;;;0.70;;
67340;SDS011;54227;45.198;5.732;2022-07-29T00:11:14;0.98;;;0.73;;
67340;SDS011;54227;45.198;5.732;2022-07-29T00:13:39;0.70;;;0.60;;
67340;SDS011;54227;45.198;5.732;2022-07-29T00:16:05;0.80;;;0.60;;
67340;SDS011;54227;45.198;5.732;2022-07-29T00:18:30;1.15;;;0.75;;
67340;SDS011;54227;45.198;5.732;2022-07-29T00:20:56;0.88;;;0.60;;
67340;SDS011;54227;45.198;5.732;2022-07-29T00:23:22;0.90;;;0.60;;
67340;SDS011;54227;45.198;5.732;2022-07-29T00:25:47;0.93;;;0.60;;
67340;SDS011;54227;45.198;5.732;2022-07-29T00:28:12;0.95;;;0.70;;
67340;SDS011;54227;45.198;5.732;2022-07-29T00:30:38;1.50;;;0.80;;
67340;SDS011;54227;45.198;5.732;2022-07-29T00:33:03;0.85;;;0.57;;
67340;SDS011;54227;45.198;5.732;2022-07-29T00:35:29;0.60;;;0.50;;
67340;SDS011;54227;45.198;5.732;2022-07-29T00:38:10;1.35;;;0.70;;
67340;SDS011;54227;45.198;5.732;2022-07-29T00:40:36;1.40;;;0.80;;
67340;SDS011;54227;45.198;5.732;2022-07-29T00:43:02;1.90;;;0.60;;
67340;SDS011;54227;45.198;5.732;2022-07-29T00:45:27;1.33;;;0.80;;
67340;SDS011;54227;45.198;5.732;2022-07-29T00:47:53;0.70;;;0.65;;
67340;SDS011;54227;45.198;5.732;2022-07-29T00:50:18;0.95;;;0.60;;
67340;SDS011;54227;45.198;5.732;2022-07-29T00:52:44;1.13;;;0.63;;
67340;SDS011;54227;45.198;5.732;2022-07-29T00:55:10;0.98;;;0.65;;
67340;SDS011;54227;45.198;5.732;2022-07-29T00:57:38;0.82;;;0.60;;
67340;SDS011;54227;45.198;5.732;2022-07-29T01:00:06;1.30;;;0.75;;
67340;SDS011;54227;45.198;5.732;2022-07-29T01:02:34;1.08;;;0.70;;
67340;SDS011;54227;45.198;5.732;2022-07-29T01:05:00;1.15;;;0.70;;
67340;SDS011;54227;45.198;5.732;2022-07-29T01:07:26;1.02;;;0.63;;
67340;SDS011;54227;45.198;5.732;2022-07-29T01:09:53;1.05;;;0.63;;
67340;SDS011;54227;45.198;5.732;2022-07-29T01:12:23;0.90;;;0.63;;
67340;SDS011;54227;45.198;5.732;2022-07-29T01:14:50;0.65;;;0.55;;
67340;SDS011;54227;45.198;5.732;2022-07-29T01:28:39;0.50;;;0.40;;
67340;SDS011;54227;45.198;5.732;2022-07-29T01:31:14;1.00;;;0.70;;
67340;SDS011;54227;45.198;5.732;2022-07-29T01:33:45;0.98;;;0.68;;
67340;SDS011;54227;45.198;5.732;2022-07-29T01:36:30;0.80;;;0.60;;
67340;SDS011;54227;45.198;5.732;2022-07-29T01:39:14;0.80;;;0.50;;
67340;SDS011;54227;45.198;5.732;2022-07-29T01:41:53;1.38;;;0.60;;
67340;SDS011;54227;45.198;5.732;2022-07-29T01:44:26;0.77;;;0.60;;
67340;SDS011;54227;45.198;5.732;2022-07-29T01:46:58;0.80;;;0.60;;
67340;SDS011;54227;45.198;5.732;2022-07-29T01:49:31;1.08;;;0.60;;
67340;SDS011;54227;45.198;5.732;2022-07-29T01:52:05;1.48;;;0.68;;
67340;SDS011;54227;45.198;5.732;2022-07-29T01:54:39;1.02;;;0.60;;
67340;SDS011;54227;45.198;5.732;2022-07-29T01:57:09;0.90;;;0.68;;
67340;SDS011;54227;45.198;5.732;2022-07-29T01:59:38;0.85;;;0.63;;
67340;SDS011;54227;45.198;5.732;2022-07-29T02:02:06;0.80;;;0.60;;
67340;SDS011;54227;45.198;5.732;2022-07-29T02:04:33;0.75;;;0.60;;
67340;SDS011;54227;45.198;5.732;2022-07-29T02:07:02;0.82;;;0.50;;
67340;SDS011;54227;45.198;5.732;2022-07-29T02:09:32;0.70;;;0.50;;
67340;SDS011;54227;45.198;5.732;2022-07-29T02:12:00;0.90;;;0.68;;
67340;SDS011;54227;45.198;5.732;2022-07-29T02:14:30;0.70;;;0.60;;
67340;SDS011;54227;45.198;5.732;2022-07-29T02:17:01;0.68;;;0.60;;
67340;SDS011;54227;45.198;5.732;2022-07-29T02:19:27;1.48;;;0.60;;
67340;SDS011;54227;45.198;5.732;2022-07-29T02:21:54;0.70;;;0.55;;
67340;SDS011;54227;45.198;5.732;2022-07-29T02:24:23;0.60;;;0.50;;
67340;SDS011;54227;45.198;5.732;2022-07-29T02:26:50;0.60;;;0.50;;
67340;SDS011;54227;45.198;5.732;2022-07-29T02:29:18;0.95;;;0.60;;
67340;SDS011;54227;45.198;5.732;2022-07-29T02:31:50;1.00;;;0.70;;
67340;SDS011;54227;45.198;5.732;2022-07-29T02:34:18;0.63;;;0.50;;
67340;SDS011;54227;45.198;5.732;2022-07-29T02:36:46;0.57;;;0.50;;
67340;SDS011;54227;45.198;5.732;2022-07-29T02:39:13;0.82;;;0.60;;
67340;SDS011;54227;45.198;5.732;2022-07-29T02:41:47;0.50;;;0.50;;
67340;SDS011;54227;45.198;5.732;2022-07-29T02:44:15;0.95;;;0.77;;
67340;SDS011;54227;45.198;5.732;2022-07-29T02:46:46;0.80;;;0.60;;
67340;SDS011;54227;45.198;5.732;2022-07-29T02:51:59;0.52;;;0.50;;
67340;SDS011;54227;45.198;5.732;2022-07-29T02:54:38;1.85;;;0.60;;
67340;SDS011;54227;45.198;5.732;2022-07-29T02:57:14;0.85;;;0.60;;
67340;SDS011;54227;45.198;5.732;2022-07-29T02:59:47;0.70;;;0.50;;
67340;SDS011;54227;45.198;5.732;2022-07-29T03:02:16;0.50;;;0.40;;
67340;SDS011;54227;45.198;5.732;2022-07-29T03:04:43;0.65;;;0.60;;
67340;SDS011;54227;45.198;5.732;2022-07-29T03:07:10;0.68;;;0.50;;
67340;SDS011;54227;45.198;5.732;2022-07-29T03:09:40;0.82;;;0.68;;
67340;SDS011;54227;45.198;5.732;2022-07-29T03:12:08;0.90;;;0.60;;
67340;SDS011;54227;45.198;5.732;2022-07-29T03:14:33;0.70;;;0.60;;
67340;SDS011;54227;45.198;5.732;2022-07-29T03:17:00;0.57;;;0.50;;
67340;SDS011;54227;45.198;5.732;2022-07-29T03:19:27;0.70;;;0.50;;
67340;SDS011;54227;45.198;5.732;2022-07-29T03:21:55;0.90;;;0.63;;
67340;SDS011;54227;45.198;5.732;2022-07-29T03:24:29;0.68;;;0.55;;
67340;SDS011;54227;45.198;5.732;2022-07-29T03:26:56;0.50;;;0.50;;
67340;SDS011;54227;45.198;5.732;2022-07-29T03:29:22;0.68;;;0.57;;
67340;SDS011;54227;45.198;5.732;2022-07-29T03:31:48;0.90;;;0.50;;
67340;SDS011;54227;45.198;5.732;2022-07-29T03:34:14;0.77;;;0.57;;
67340;SDS011;54227;45.198;5.732;2022-07-29T03:36:39;0.60;;;0.45;;
67340;SDS011;54227;45.198;5.732;2022-07-29T03:39:05;0.63;;;0.50;;
67340;SDS011;54227;45.198;5.732;2022-07-29T03:41:31;0.73;;;0.57;;
67340;SDS011;54227;45.198;5.732;2022-07-29T03:44:00;0.50;;;0.45;;
67340;SDS011;54227;45.198;5.732;2022-07-29T03:46:27;0.60;;;0.50;;
67340;SDS011;54227;45.198;5.732;2022-07-29T03:48:55;0.85;;;0.60;;
67340;SDS011;54227;45.198;5.732;2022-07-29T03:51:25;1.08;;;0.60;;
67340;SDS011;54227;45.198;5.732;2022-07-29T03:53:51;0.50;;;0.50;;
67340;SDS011;54227;45.198;5.732;2022-07-29T03:56:17;1.35;;;0.70;;
67340;SDS011;54227;45.198;5.732;2022-07-29T03:58:47;0.88;;;0.60;;
67340;SDS011;54227;45.198;5.732;2022-07-29T04:01:17;0.50;;;0.40;;
67340;SDS011;54227;45.198;5.732;2022-07-29T04:03:44;0.68;;;0.50;;
67340;SDS011;54227;45.198;5.732;2022-07-29T04:06:14;0.57;;;0.50;;
67340;SDS011;54227;45.198;5.732;2022-07-29T04:08:39;0.80;;;0.60;;
67340;SDS011;54227;45.198;5.732;2022-07-29T04:11:05;0.40;;;0.40;;
67340;SDS011;54227;45.198;5.732;2022-07-29T04:13:31;0.80;;;0.60;;
67340;SDS011;54227;45.198;5.732;2022-07-29T04:15:57;0.82;;;0.60;;
67340;SDS011;54227;45.198;5.732;2022-07-29T04:18:23;0.93;;;0.70;;
67340;SDS011;54227;45.198;5.732;2022-07-29T04:20:49;0.60;;;0.45;;
67340;SDS011;54227;45.198;5.732;2022-07-29T04:23:14;1.35;;;0.60;;
67340;SDS011;54227;45.198;5.732;2022-07-29T04:25:40;0.73;;;0.50;;
67340;SDS011;54227;45.198;5.732;2022-07-29T04:28:07;0.63;;;0.50;;
67340;SDS011;54227;45.198;5.732;2022-07-29T04:30:33;0.85;;;0.50;;
67340;SDS011;54227;45.198;5.732;2022-07-29T04:33:00;0.90;;;0.60;;
67340;SDS011;54227;45.198;5.732;2022-07-29T04:35:26;1.02;;;0.65;;
67340;SDS011;54227;45.198;5.732;2022-07-29T04:37:52;0.65;;;0.57;;
67340;SDS011;54227;45.198;5.732;2022-07-29T04:40:18;0.98;;;0.70;;
67340;SDS011;54227;45.198;5.732;2022-07-29T04:42:43;0.73;;;0.50;;
67340;SDS011;54227;45.198;5.732;2022-07-29T04:45:09;0.77;;;0.57;;
67340;SDS011;54227;45.198;5.732;2022-07-29T04:47:34;0.80;;;0.60;;
67340;SDS011;54227;45.198;5.732;2022-07-29T04:50:00;0.75;;;0.60;;
67340;SDS011;54227;45.198;5.732;2022-07-29T04:52:25;1.05;;;0.70;;
67340;SDS011;54227;45.198;5.732;2022-07-29T04:54:51;1.17;;;0.60;;
67340;SDS011;54227;45.198;5.732;2022-07-29T04:57:16;1.45;;;0.50;;
67340;SDS011;54227;45.198;5.732;2022-07-29T04:59:42;0.80;;;0.70;;
67340;SDS011;54227;45.198;5.732;2022-07-29T05:02:07;1.05;;;0.65;;
67340;SDS011;54227;45.198;5.732;2022-07-29T05:04:32;0.85;;;0.60;;
67340;SDS011;54227;45.198;5.732;2022-07-29T05:06:58;0.70;;;0.50;;
67340;SDS011;54227;45.198;5.732;2022-07-29T05:09:23;0.82;;;0.60;;
67340;SDS011;54227;45.198;5.732;2022-07-29T05:11:49;1.13;;;0.60;;
67340;SDS011;54227;45.198;5.732;2022-07-29T05:14:14;0.70;;;0.60;;
67340;SDS011;54227;45.198;5.732;2022-07-29T05:16:39;0.82;;;0.63;;
67340;SDS011;54227;45.198;5.732;2022-07-29T05:19:05;0.90;;;0.60;;
67340;SDS011;54227;45.198;5.732;2022-07-29T05:21:31;1.70;;;0.63;;
67340;SDS011;54227;45.198;5.732;2022-07-29T05:23:57;0.85;;;0.65;;
67340;SDS011;54227;45.198;5.732;2022-07-29T05:26:22;0.77;;;0.60;;
67340;SDS011;54227;45.198;5.732;2022-07-29T05:28:48;1.05;;;0.70;;
67340;SDS011;54227;45.198;5.732;2022-07-29T05:31:13;1.20;;;0.70;;
67340;SDS011;54227;45.198;5.732;2022-07-29T05:33:39;0.68;;;0.57;;
67340;SDS011;54227;45.198;5.732;2022-07-29T05:36:14;1.42;;;0.55;;
67340;SDS011;54227;45.198;5.732;2022-07-29T05:38:39;1.13;;;0.80;;
67340;SDS011;54227;45.198;5.732;2022-07-29T05:41:04;7.45;;;1.00;;
67340;SDS011;54227;45.198;5.732;2022-07-29T05:43:30;12.50;;;1.40;;
67340;SDS011;54227;45.198;5.732;2022-07-29T05:45:55;6.63;;;1.17;;
67340;SDS011;54227;45.198;5.732;2022-07-29T05:48:21;19.42;;;1.40;;
67340;SDS011;54227;45.198;5.732;2022-07-29T05:50:47;7.78;;;1.10;;
67340;SDS011;54227;45.198;5.732;2022-07-29T05:53:12;10.90;;;1.20;;
67340;SDS011;54227;45.198;5.732;2022-07-29T05:55:38;5.65;;;1.08;;
67340;SDS011;54227;45.198;5.732;2022-07-29T05:58:03;5.13;;;1.02;;
67340;SDS011;54227;45.198;5.732;2022-07-29T06:00:28;6.57;;;1.20;;
67340;SDS011;54227;45.198;5.732;2022-07-29T06:02:55;2.40;;;0.90;;
67340;SDS011;54227;45.198;5.732;2022-07-29T06:05:20;3.72;;;0.82;;
67340;SDS011;54227;45.198;5.732;2022-07-29T06:07:45;3.65;;;0.82;;
67340;SDS011;54227;45.198;5.732;2022-07-29T06:10:11;2.20;;;0.90;;
67340;SDS011;54227;45.198;5.732;2022-07-29T06:12:36;1.85;;;0.70;;
67340;SDS011;54227;45.198;5.732;2022-07-29T06:15:02;2.70;;;0.90;;
67340;SDS011;54227;45.198;5.732;2022-07-29T06:17:27;3.17;;;0.82;;
67340;SDS011;54227;45.198;5.732;2022-07-29T06:19:53;1.38;;;0.77;;
67340;SDS011;54227;45.198;5.732;2022-07-29T06:22:18;2.10;;;0.98;;
67340;SDS011;54227;45.198;5.732;2022-07-29T06:24:44;1.58;;;0.70;;
67340;SDS011;54227;45.198;5.732;2022-07-29T06:27:12;2.30;;;0.70;;
67340;SDS011;54227;45.198;5.732;2022-07-29T06:29:38;2.65;;;0.68;;
67340;SDS011;54227;45.198;5.732;2022-07-29T06:32:03;1.35;;;0.80;;
67340;SDS011;54227;45.198;5.732;2022-07-29T06:34:29;1.67;;;0.70;;
67340;SDS011;54227;45.198;5.732;2022-07-29T06:36:54;1.20;;;0.70;;
67340;SDS011;54227;45.198;5.732;2022-07-29T06:39:20;1.48;;;0.73;;
67340;SDS011;54227;45.198;5.732;2022-07-29T06:41:46;2.67;;;0.77;;
67340;SDS011;54227;45.198;5.732;2022-07-29T06:44:14;1.08;;;0.60;;
67340;SDS011;54227;45.198;5.732;2022-07-29T06:46:39;1.30;;;0.63;;
67340;SDS011;54227;45.198;5.732;2022-07-29T06:49:05;1.33;;;0.73;;
67340;SDS011;54227;45.198;5.732;2022-07-29T06:51:30;1.73;;;0.70;;
67340;SDS011;54227;45.198;5.732;2022-07-29T06:53:55;1.23;;;0.65;;
67340;SDS011;54227;45.198;5.732;2022-07-29T06:56:22;1.15;;;0.77;;
67340;SDS011;54227;45.198;5.732;2022-07-29T06:58:47;1.33;;;0.60;;
67340;SDS011;54227;45.198;5.732;2022-07-29T07:01:13;0.93;;;0.70;;
67340;SDS011;54227;45.198;5.732;2022-07-29T07:03:38;2.10;;;0.70;;
67340;SDS011;54227;45.198;5.732;2022-07-29T07:06:04;1.42;;;0.80;;
67340;SDS011;54227;45.198;5.732;2022-07-29T07:08:29;1.13;;;0.60;;
67340;SDS011;54227;45.198;5.732;2022-07-29T07:10:55;1.13;;;0.60;;
67340;SDS011;54227;45.198;5.732;2022-07-29T07:13:21;0.73;;;0.55;;
67340;SDS011;54227;45.198;5.732;2022-07-29T07:15:47;1.95;;;0.80;;
67340;SDS011;54227;45.198;5.732;2022-07-29T07:18:13;0.80;;;0.50;;
67340;SDS011;54227;45.198;5.732;2022-07-29T07:20:40;0.80;;;0.50;;
67340;SDS011;54227;45.198;5.732;2022-07-29T07:23:06;1.60;;;0.70;;
67340;SDS011;54227;45.198;5.732;2022-07-29T07:25:31;0.82;;;0.70;;
67340;SDS011;54227;45.198;5.732;2022-07-29T07:27:57;0.73;;;0.55;;
67340;SDS011;54227;45.198;5.732;2022-07-29T07:30:22;1.05;;;0.65;;
67340;SDS011;54227;45.198;5.732;2022-07-29T07:32:48;0.60;;;0.47;;
67340;SDS011;54227;45.198;5.732;2022-07-29T07:35:13;0.90;;;0.60;;
67340;SDS011;54227;45.198;5.732;2022-07-29T07:37:39;1.17;;;0.65;;
67340;SDS011;54227;45.198;5.732;2022-07-29T07:40:08;1.33;;;0.82;;
67340;SDS011;54227;45.198;5.732;2022-07-29T07:42:36;1.00;;;0.70;;
67340;SDS011;54227;45.198;5.732;2022-07-29T07:45:02;1.17;;;0.70;;
67340;SDS011;54227;45.198;5.732;2022-07-29T07:47:28;0.93;;;0.60;;
67340;SDS011;54227;45.198;5.732;2022-07-29T07:49:53;1.10;;;0.70;;
67340;SDS011;54227;45.198;5.732;2022-07-29T07:52:20;1.08;;;0.60;;
67340;SDS011;54227;45.198;5.732;2022-07-29T07:54:47;1.60;;;0.70;;
67340;SDS011;54227;45.198;5.732;2022-07-29T07:57:13;4.57;;;0.70;;
67340;SDS011;54227;45.198;5.732;2022-07-29T07:59:39;1.08;;;0.70;;
67340;SDS011;54227;45.198;5.732;2022-07-29T08:02:06;4.45;;;0.80;;
67340;SDS011;54227;45.198;5.732;2022-07-29T08:04:32;4.65;;;0.90;;
67340;SDS011;54227;45.198;5.732;2022-07-29T08:06:58;2.38;;;0.70;;
67340;SDS011;54227;45.198;5.732;2022-07-29T08:09:25;3.72;;;1.00;;
67340;SDS011;54227;45.198;5.732;2022-07-29T08:11:51;2.05;;;0.90;;
67340;SDS011;54227;45.198;5.732;2022-07-29T08:14:17;1.92;;;0.73;;
67340;SDS011;54227;45.198;5.732;2022-07-29T08:16:43;2.97;;;1.00;;
67340;SDS011;54227;45.198;5.732;2022-07-29T08:19:08;4.47;;;1.20;;
67340;SDS011;54227;45.198;5.732;2022-07-29T08:21:34;1.63;;;1.00;;
67340;SDS011;54227;45.198;5.732;2022-07-29T08:24:00;2.28;;;1.00;;
67340;SDS011;54227;45.198;5.732;2022-07-29T08:26:45;2.03;;;1.10;;
67340;SDS011;54227;45.198;5.732;2022-07-29T08:29:11;1.70;;;0.90;;
67340;SDS011;54227;45.198;5.732;2022-07-29T08:31:37;1.58;;;1.00;;
67340;SDS011;54227;45.198;5.732;2022-07-29T08:34:03;3.20;;;1.20;;
67340;SDS011;54227;45.198;5.732;2022-07-29T08:36:29;3.35;;;1.10;;
67340;SDS011;54227;45.198;5.732;2022-07-29T08:38:55;5.13;;;1.00;;
67340;SDS011;54227;45.198;5.732;2022-07-29T08:41:21;1.60;;;0.80;;
67340;SDS011;54227;45.198;5.732;2022-07-29T08:43:50;6.78;;;1.13;;
67340;SDS011;54227;45.198;5.732;2022-07-29T08:46:17;2.35;;;0.90;;
67340;SDS011;54227;45.198;5.732;2022-07-29T08:48:45;3.03;;;1.13;;
67340;SDS011;54227;45.198;5.732;2022-07-29T08:51:13;3.88;;;1.30;;
67340;SDS011;54227;45.198;5.732;2022-07-29T08:53:43;4.82;;;1.33;;
67340;SDS011;54227;45.198;5.732;2022-07-29T08:56:12;7.65;;;1.45;;
67340;SDS011;54227;45.198;5.732;2022-07-29T08:58:39;6.82;;;1.38;;
67340;SDS011;54227;45.198;5.732;2022-07-29T09:01:05;6.57;;;1.85;;
67340;SDS011;54227;45.198;5.732;2022-07-29T09:03:32;6.80;;;1.63;;
67340;SDS011;54227;45.198;5.732;2022-07-29T09:06:01;8.40;;;1.95;;
67340;SDS011;54227;45.198;5.732;2022-07-29T09:08:27;7.35;;;1.90;;
67340;SDS011;54227;45.198;5.732;2022-07-29T09:10:53;8.10;;;1.88;;
67340;SDS011;54227;45.198;5.732;2022-07-29T09:13:20;12.30;;;2.20;;
67340;SDS011;54227;45.198;5.732;2022-07-29T09:15:47;13.60;;;2.67;;
67340;SDS011;54227;45.198;5.732;2022-07-29T09:18:12;15.05;;;2.50;;
67340;SDS011;54227;45.198;5.732;2022-07-29T09:20:58;11.60;;;2.35;;
67340;SDS011;54227;45.198;5.732;2022-07-29T09:26:32;9.40;;;2.38;;
67340;SDS011;54227;45.198;5.732;2022-07-29T09:29:01;8.95;;;2.05;;
67340;SDS011;54227;45.198;5.732;2022-07-29T09:31:37;9.70;;;1.90;;
67340;SDS011;54227;45.198;5.732;2022-07-29T09:34:04;11.30;;;2.30;;
67340;SDS011;54227;45.198;5.732;2022-07-29T09:36:30;6.05;;;2.10;;
67340;SDS011;54227;45.198;5.732;2022-07-29T09:39:05;9.38;;;1.90;;
67340;SDS011;54227;45.198;5.732;2022-07-29T09:41:43;9.10;;;2.20;;
67340;SDS011;54227;45.198;5.732;2022-07-29T09:44:17;6.70;;;1.88;;
67340;SDS011;54227;45.198;5.732;2022-07-29T09:49:22;5.50;;;1.45;;
67340;SDS011;54227;45.198;5.732;2022-07-29T09:51:58;5.80;;;1.60;;
67340;SDS011;54227;45.198;5.732;2022-07-29T09:54:24;8.60;;;1.88;;
67340;SDS011;54227;45.198;5.732;2022-07-29T09:56:51;5.53;;;1.73;;
67340;SDS011;54227;45.198;5.732;2022-07-29T09:59:17;6.38;;;1.80;;
67340;SDS011;54227;45.198;5.732;2022-07-29T10:01:45;8.38;;;2.00;;
67340;SDS011;54227;45.198;5.732;2022-07-29T10:04:11;6.13;;;2.03;;
67340;SDS011;54227;45.198;5.732;2022-07-29T10:06:45;5.15;;;1.90;;
67340;SDS011;54227;45.198;5.732;2022-07-29T10:09:21;5.15;;;1.88;;
67340;SDS011;54227;45.198;5.732;2022-07-29T10:12:09;4.75;;;2.03;;
67340;SDS011;54227;45.198;5.732;2022-07-29T10:14:38;6.50;;;2.08;;
67340;SDS011;54227;45.198;5.732;2022-07-29T10:17:05;5.78;;;1.80;;
67340;SDS011;54227;45.198;5.732;2022-07-29T10:19:31;3.45;;;1.70;;
67340;SDS011;54227;45.198;5.732;2022-07-29T10:21:59;4.13;;;1.77;;
67340;SDS011;54227;45.198;5.732;2022-07-29T10:24:26;5.00;;;2.20;;
67340;SDS011;54227;45.198;5.732;2022-07-29T10:26:57;7.25;;;2.78;;
67340;SDS011;54227;45.198;5.732;2022-07-29T10:29:24;5.57;;;2.00;;
67340;SDS011;54227;45.198;5.732;2022-07-29T10:31:57;4.85;;;2.17;;
67340;SDS011;54227;45.198;5.732;2022-07-29T10:40:17;3.67;;;1.80;;
67340;SDS011;54227;45.198;5.732;2022-07-29T10:43:19;5.75;;;2.03;;
67340;SDS011;54227;45.198;5.732;2022-07-29T10:45:49;4.22;;;2.28;;
67340;SDS011;54227;45.198;5.732;2022-07-29T10:48:19;4.55;;;2.00;;
67340;SDS011;54227;45.198;5.732;2022-07-29T10:50:56;5.28;;;2.17;;
67340;SDS011;54227;45.198;5.732;2022-07-29T11:01:51;5.43;;;2.05;;
67340;SDS011;54227;45.198;5.732;2022-07-29T11:05:00;4.93;;;2.22;;
67340;SDS011;54227;45.198;5.732;2022-07-29T11:07:06;4.07;;;1.90;;
67340;SDS011;54227;45.198;5.732;2022-07-29T11:09:33;6.57;;;2.20;;
67340;SDS011;54227;45.198;5.732;2022-07-29T11:11:58;3.78;;;2.00;;
67340;SDS011;54227;45.198;5.732;2022-07-29T11:17:26;5.57;;;2.03;;
67340;SDS011;54227;45.198;5.732;2022-07-29T11:19:51;4.50;;;2.17;;
67340;SDS011;54227;45.198;5.732;2022-07-29T11:22:37;4.60;;;2.03;;
67340;SDS011;54227;45.198;5.732;2022-07-29T11:25:12;4.63;;;2.00;;
67340;SDS011;54227;45.198;5.732;2022-07-29T11:27:41;5.95;;;2.00;;
67340;SDS011;54227;45.198;5.732;2022-07-29T11:30:07;4.28;;;1.85;;
67340;SDS011;54227;45.198;5.732;2022-07-29T11:32:41;6.53;;;1.95;;
67340;SDS011;54227;45.198;5.732;2022-07-29T11:35:18;5.18;;;1.98;;
67340;SDS011;54227;45.198;5.732;2022-07-29T11:37:47;4.72;;;2.13;;
67340;SDS011;54227;45.198;5.732;2022-07-29T11:43:57;3.95;;;1.88;;
67340;SDS011;54227;45.198;5.732;2022-07-29T11:49:07;5.90;;;2.25;;
67340;SDS011;54227;45.198;5.732;2022-07-29T11:51:34;5.57;;;2.40;;
67340;SDS011;54227;45.198;5.732;2022-07-29T11:54:01;5.93;;;2.20;;
67340;SDS011;54227;45.198;5.732;2022-07-29T11:56:27;7.70;;;2.00;;
67340;SDS011;54227;45.198;5.732;2022-07-29T11:59:06;4.60;;;2.13;;
67340;SDS011;54227;45.198;5.732;2022-07-29T12:01:34;4.93;;;2.38;;
67340;SDS011;54227;45.198;5.732;2022-07-29T12:04:06;5.28;;;2.25;;
67340;SDS011;54227;45.198;5.732;2022-07-29T12:06:35;6.30;;;2.70;;
67340;SDS011;54227;45.198;5.732;2022-07-29T12:09:05;6.22;;;2.80;;
67340;SDS011;54227;45.198;5.732;2022-07-29T12:11:32;5.53;;;2.40;;
67340;SDS011;54227;45.198;5.732;2022-07-29T12:13:57;5.95;;;2.42;;
67340;SDS011;54227;45.198;5.732;2022-07-29T12:16:23;5.40;;;2.13;;
67340;SDS011;54227;45.198;5.732;2022-07-29T12:19:02;8.32;;;2.17;;
67340;SDS011;54227;45.198;5.732;2022-07-29T12:21:29;4.25;;;2.30;;
67340;SDS011;54227;45.198;5.732;2022-07-29T12:24:08;4.82;;;2.30;;
67340;SDS011;54227;45.198;5.732;2022-07-29T12:26:33;9.85;;;2.58;;
67340;SDS011;54227;45.198;5.732;2022-07-29T12:28:59;6.07;;;2.80;;
67340;SDS011;54227;45.198;5.732;2022-07-29T12:31:24;7.50;;;2.58;;
67340;SDS011;54227;45.198;5.732;2022-07-29T12:33:53;6.30;;;2.65;;
67340;SDS011;54227;45.198;5.732;2022-07-29T12:36:18;7.28;;;2.45;;
67340;SDS011;54227;45.198;5.732;2022-07-29T12:38:44;7.95;;;2.67;;
67340;SDS011;54227;45.198;5.732;2022-07-29T12:41:10;6.50;;;2.70;;
67340;SDS011;54227;45.198;5.732;2022-07-29T12:43:36;5.68;;;2.45;;
67340;SDS011;54227;45.198;5.732;2022-07-29T12:46:13;7.28;;;2.72;;
67340;SDS011;54227;45.198;5.732;2022-07-29T12:48:40;6.30;;;2.70;;
67340;SDS011;54227;45.198;5.732;2022-07-29T12:51:08;5.00;;;2.40;;
67340;SDS011;54227;45.198;5.732;2022-07-29T12:53:35;6.30;;;2.35;;
67340;SDS011;54227;45.198;5.732;2022-07-29T12:56:01;6.47;;;2.50;;
67340;SDS011;54227;45.198;5.732;2022-07-29T13:01:12;5.70;;;2.60;;
67340;SDS011;54227;45.198;5.732;2022-07-29T13:04:00;7.00;;;2.55;;
67340;SDS011;54227;45.198;5.732;2022-07-29T13:09:03;7.15;;;2.50;;
67340;SDS011;54227;45.198;5.732;2022-07-29T13:11:29;5.85;;;2.70;;
67340;SDS011;54227;45.198;5.732;2022-07-29T13:13:59;13.90;;;2.40;;
67340;SDS011;54227;45.198;5.732;2022-07-29T13:16:24;5.75;;;2.38;;
67340;SDS011;54227;45.198;5.732;2022-07-29T13:19:02;9.65;;;2.47;;
67340;SDS011;54227;45.198;5.732;2022-07-29T13:21:37;5.32;;;1.90;;
67340;SDS011;54227;45.198;5.732;2022-07-29T13:24:07;5.50;;;2.20;;
67340;SDS011;54227;45.198;5.732;2022-07-29T13:26:33;10.05;;;2.20;;
67340;SDS011;54227;45.198;5.732;2022-07-29T13:28:59;5.20;;;1.90;;
67340;SDS011;54227;45.198;5.732;2022-07-29T13:31:24;6.32;;;2.17;;
67340;SDS011;54227;45.198;5.732;2022-07-29T13:33:50;8.07;;;2.13;;
67340;SDS011;54227;45.198;5.732;2022-07-29T13:36:15;7.32;;;2.35;;
67340;SDS011;54227;45.198;5.732;2022-07-29T13:38:41;4.63;;;2.05;;
67340;SDS011;54227;45.198;5.732;2022-07-29T13:41:06;4.75;;;2.10;;
67340;SDS011;54227;45.198;5.732;2022-07-29T13:43:32;7.60;;;2.13;;
67340;SDS011;54227;45.198;5.732;2022-07-29T13:45:57;6.68;;;2.33;;
67340;SDS011;54227;45.198;5.732;2022-07-29T13:48:23;5.38;;;2.10;;
67340;SDS011;54227;45.198;5.732;2022-07-29T13:50:48;3.65;;;1.67;;
67340;SDS011;54227;45.198;5.732;2022-07-29T13:53:14;5.68;;;1.75;;
67340;SDS011;54227;45.198;5.732;2022-07-29T13:55:39;5.60;;;1.95;;
67340;SDS011;54227;45.198;5.732;2022-07-29T13:58:05;5.32;;;1.80;;
67340;SDS011;54227;45.198;5.732;2022-07-29T14:00:30;6.28;;;2.00;;
67340;SDS011;54227;45.198;5.732;2022-07-29T14:02:56;3.97;;;1.92;;
67340;SDS011;54227;45.198;5.732;2022-07-29T14:05:22;5.80;;;2.05;;
67340;SDS011;54227;45.198;5.732;2022-07-29T14:07:47;4.18;;;2.00;;
67340;SDS011;54227;45.198;5.732;2022-07-29T14:10:13;6.55;;;2.50;;
67340;SDS011;54227;45.198;5.732;2022-07-29T14:12:38;7.35;;;2.10;;
67340;SDS011;54227;45.198;5.732;2022-07-29T14:15:04;5.20;;;2.15;;
67340;SDS011;54227;45.198;5.732;2022-07-29T14:17:30;8.63;;;3.03;;
67340;SDS011;54227;45.198;5.732;2022-07-29T14:19:56;4.03;;;2.15;;
67340;SDS011;54227;45.198;5.732;2022-07-29T14:22:21;5.43;;;1.98;;
67340;SDS011;54227;45.198;5.732;2022-07-29T14:24:46;3.47;;;1.90;;
67340;SDS011;54227;45.198;5.732;2022-07-29T14:27:12;4.68;;;2.00;;
67340;SDS011;54227;45.198;5.732;2022-07-29T14:29:37;7.63;;;1.85;;
67340;SDS011;54227;45.198;5.732;2022-07-29T14:32:03;5.78;;;1.90;;
67340;SDS011;54227;45.198;5.732;2022-07-29T14:34:34;5.95;;;2.08;;
67340;SDS011;54227;45.198;5.732;2022-07-29T14:37:00;3.25;;;1.80;;
67340;SDS011;54227;45.198;5.732;2022-07-29T14:39:26;3.90;;;1.80;;
67340;SDS011;54227;45.198;5.732;2022-07-29T14:41:51;4.43;;;1.92;;
67340;SDS011;54227;45.198;5.732;2022-07-29T14:44:17;4.72;;;2.15;;
67340;SDS011;54227;45.198;5.732;2022-07-29T14:46:43;3.42;;;1.65;;
67340;SDS011;54227;45.198;5.732;2022-07-29T14:49:08;5.15;;;1.90;;
67340;SDS011;54227;45.198;5.732;2022-07-29T14:51:34;5.70;;;2.13;;
67340;SDS011;54227;45.198;5.732;2022-07-29T14:53:59;3.33;;;1.77;;
67340;SDS011;54227;45.198;5.732;2022-07-29T14:56:25;4.93;;;1.83;;
67340;SDS011;54227;45.198;5.732;2022-07-29T14:58:51;5.20;;;1.95;;
67340;SDS011;54227;45.198;5.732;2022-07-29T15:01:17;5.00;;;1.73;;
67340;SDS011;54227;45.198;5.732;2022-07-29T15:03:42;5.22;;;2.08;;
67340;SDS011;54227;45.198;5.732;2022-07-29T15:06:08;4.45;;;2.03;;
67340;SDS011;54227;45.198;5.732;2022-07-29T15:08:33;3.97;;;1.70;;
67340;SDS011;54227;45.198;5.732;2022-07-29T15:10:59;4.68;;;2.05;;
67340;SDS011;54227;45.198;5.732;2022-07-29T15:13:25;3.53;;;1.73;;
67340;SDS011;54227;45.198;5.732;2022-07-29T15:15:51;5.72;;;1.77;;
67340;SDS011;54227;45.198;5.732;2022-07-29T15:18:17;3.78;;;1.98;;
67340;SDS011;54227;45.198;5.732;2022-07-29T15:20:42;6.90;;;1.80;;
67340;SDS011;54227;45.198;5.732;2022-07-29T15:23:10;4.47;;;1.65;;
67340;SDS011;54227;45.198;5.732;2022-07-29T15:25:37;3.17;;;1.80;;
67340;SDS011;54227;45.198;5.732;2022-07-29T15:28:03;3.35;;;1.70;;
67340;SDS011;54227;45.198;5.732;2022-07-29T15:30:31;3.17;;;1.67;;
67340;SDS011;54227;45.198;5.732;2022-07-29T15:32:58;3.65;;;1.52;;
67340;SDS011;54227;45.198;5.732;2022-07-29T15:35:23;2.95;;;1.65;;
67340;SDS011;54227;45.198;5.732;2022-07-29T15:37:49;3.30;;;1.70;;
67340;SDS011;54227;45.198;5.732;2022-07-29T15:40:15;2.72;;;1.60;;